Terminal Aerodrome Forecast
Issued by NWS Jacksonville, FL

Home | Current Version | Previous Version | Text Only | Print | Product List | Glossary On
Versions: 1 2 3 4 5 6 7 8 9 10 11 12 13 14
000
FTUS42 KJAX 231121
TAFSSI
TAF
KSSI 231121Z 2312/2412 07008KT P6SM BKN200
     FM231400 06012KT P6SM SCT040
     FM231700 07014G22KT P6SM BKN040
     FM240600 06010KT P6SM BKN025=

USA.gov is the U.S. government's official web portal to all federal, state and local government web resources and services.